Time;durP1;ratioP1;P1;durP2;ratioP2;P2;SDS_P1;SDS_P2;PMS_P1;PMS_P2;Temp;Humidity;BMP_temperature;BMP_pressure;BME280_temperature;BME280_humidity;BME280_pressure;Samples;Min_cycle;Max_cycle;Signal;HPM_P1;HPM_P2
2022/09/18 00:00:31;;;;;;;27.30;6.43;;;;;;;;;;6209958;28;20052;-63
2022/09/18 00:03:57;;;;;;;20.90;7.35;;;;;;;;;;6211420;28;20069;-63
2022/09/18 00:06:57;;;;;;;19.50;6.75;;;;;;;;;;6211006;28;20412;-63
2022/09/18 00:09:58;;;;;;;21.20;6.68;;;;;;;;;;6208403;28;20042;-64
2022/09/18 00:12:58;;;;;;;23.40;6.97;;;;;;;;;;6211481;28;20040;-63
2022/09/18 00:15:59;;;;;;;19.95;6.60;;;;;;;;;;6211072;28;20042;-63
2022/09/18 00:19:00;;;;;;;26.35;7.78;;;;;;;;;;6212798;28;21274;-63
2022/09/18 00:22:00;;;;;;;21.88;6.13;;;;;;;;;;6211662;28;20524;-62
2022/09/18 00:25:01;;;;;;;17.50;6.32;;;;;;;;;;6209117;28;20049;-63
2022/09/18 00:28:01;;;;;;;21.10;6.95;;;;;;;;;;6210487;28;20046;-63
2022/09/18 00:31:12;;;;;;;22.83;7.18;;;;;;;;;;6209966;28;20069;-62
2022/09/18 00:34:13;;;;;;;22.15;8.05;;;;;;;;;;6208337;28;20121;-63
2022/09/18 00:37:14;;;;;;;20.92;7.13;;;;;;;;;;6209836;28;20050;-64
2022/09/18 00:40:15;;;;;;;23.15;6.75;;;;;;;;;;6209811;28;20188;-61
2022/09/18 00:43:19;;;;;;;20.55;6.93;;;;;;;;;;6209702;28;20038;-62
2022/09/18 00:46:28;;;;;;;17.45;6.60;;;;;;;;;;6208339;28;20073;-63
2022/09/18 00:49:29;;;;;;;25.25;6.97;;;;;;;;;;6207731;28;20132;-62
2022/09/18 00:52:41;;;;;;;20.52;7.22;;;;;;;;;;6211276;28;20112;-63
2022/09/18 00:55:42;;;;;;;24.75;6.88;;;;;;;;;;6210789;28;20077;-62
2022/09/18 00:58:44;;;;;;;25.10;7.20;;;;;;;;;;6207912;28;22222;-63
2022/09/18 01:01:45;;;;;;;;;;;;;;;;;;6207610;28;20140;-62
2022/09/18 01:04:47;;;;;;;18.40;6.40;;;;;;;;;;6211194;28;19936;-64
2022/09/18 01:07:50;;;;;;;17.02;6.18;;;;;;;;;;6209115;28;20057;-63
2022/09/18 01:11:10;;;;;;;25.92;7.85;;;;;;;;;;6207505;28;20066;-63
2022/09/18 01:14:39;;;;;;;26.98;7.50;;;;;;;;;;6208983;28;20382;-63
2022/09/18 01:17:48;;;;;;;25.23;7.85;;;;;;;;;;6210476;28;20137;-63
2022/09/18 01:21:08;;;;;;;21.30;7.50;;;;;;;;;;6209565;28;20485;-63
2022/09/18 01:24:17;;;;;;;27.33;7.18;;;;;;;;;;6209553;28;20412;-62
2022/09/18 01:27:33;;;;;;;23.58;7.00;;;;;;;;;;6209433;28;20541;-64
2022/09/18 01:30:39;;;;;;;24.95;7.90;;;;;;;;;;6208055;28;20387;-62
2022/09/18 01:33:51;;;;;;;30.58;8.13;;;;;;;;;;6209783;28;20050;-63
2022/09/18 01:36:59;;;;;;;20.33;7.30;;;;;;;;;;6206968;28;20077;-63
2022/09/18 01:40:18;;;;;;;21.35;7.07;;;;;;;;;;6209867;28;20438;-63
2022/09/18 01:43:21;;;;;;;20.10;6.55;;;;;;;;;;6208568;28;20436;-64
2022/09/18 01:46:22;;;;;;;17.60;6.20;;;;;;;;;;6209860;28;20072;-64
2022/09/18 01:49:28;;;;;;;21.42;5.78;;;;;;;;;;6208156;28;20740;-62
2022/09/18 01:52:35;;;;;;;21.25;6.57;;;;;;;;;;6209078;28;20417;-62
2022/09/18 01:55:38;;;;;;;19.13;5.82;;;;;;;;;;6208654;28;20133;-62
2022/09/18 01:58:38;;;;;;;20.48;5.75;;;;;;;;;;6205769;28;20413;-63
2022/09/18 02:01:41;;;;;;;20.25;5.88;;;;;;;;;;6210000;28;20046;-63
2022/09/18 02:04:45;;;;;;;19.70;5.30;;;;;;;;;;6214406;28;20038;-65
2022/09/18 02:07:54;;;;;;;14.70;5.28;;;;;;;;;;6214193;28;20462;-65
2022/09/18 02:11:18;;;;;;;14.68;4.53;;;;;;;;;;6212765;28;20060;-64
2022/09/18 02:14:24;;;;;;;17.48;5.20;;;;;;;;;;6207309;28;20050;-63
2022/09/18 02:17:31;;;;;;;15.73;4.82;;;;;;;;;;6213911;28;20603;-60
2022/09/18 02:20:34;;;;;;;13.90;4.10;;;;;;;;;;6212708;28;20054;-63
2022/09/18 02:23:36;;;;;;;17.95;5.82;;;;;;;;;;6211973;28;20611;-63
2022/09/18 02:26:39;;;;;;;13.63;4.55;;;;;;;;;;6213479;28;20058;-63
2022/09/18 02:29:41;;;;;;;;;;;;;;;;;;6214815;28;20100;-63
2022/09/18 02:32:42;;;;;;;12.50;4.90;;;;;;;;;;6213007;28;20024;-62
2022/09/18 02:35:45;;;;;;;20.15;5.38;;;;;;;;;;6213387;28;20394;-63
2022/09/18 02:39:13;;;;;;;16.52;5.50;;;;;;;;;;6213904;28;20504;-64
2022/09/18 02:42:23;;;;;;;17.63;5.50;;;;;;;;;;6211035;28;20091;-63
2022/09/18 02:45:47;;;;;;;16.67;5.40;;;;;;;;;;6211278;28;20444;-63
2022/09/18 02:49:20;;;;;;;17.02;5.53;;;;;;;;;;6212998;28;20062;-63
2022/09/18 02:52:29;;;;;;;15.30;5.60;;;;;;;;;;6204559;28;20405;-63
2022/09/18 02:55:36;;;;;;;17.40;5.75;;;;;;;;;;6212236;28;20528;-62
2022/09/18 02:58:46;;;;;;;19.52;5.25;;;;;;;;;;6210866;28;20475;-62
2022/09/18 03:01:47;;;;;;;20.70;6.07;;;;;;;;;;6212781;28;20045;-63
2022/09/18 03:04:48;;;;;;;15.60;6.05;;;;;;;;;;6212901;28;20149;-63
2022/09/18 03:07:49;;;;;;;21.17;6.77;;;;;;;;;;6212293;28;20042;-62
2022/09/18 03:10:50;;;;;;;22.52;8.00;;;;;;;;;;6212245;28;20045;-62
2022/09/18 03:13:50;;;;;;;20.65;6.85;;;;;;;;;;6212141;28;20034;-62
2022/09/18 03:16:51;;;;;;;25.48;8.38;;;;;;;;;;6210917;28;20452;-63
2022/09/18 03:19:52;;;;;;;24.75;7.50;;;;;;;;;;6210468;28;20087;-61
2022/09/18 03:22:53;;;;;;;27.00;7.70;;;;;;;;;;6210288;28;20499;-63
2022/09/18 03:25:53;;;;;;;28.15;7.40;;;;;;;;;;6210449;28;20041;-65
2022/09/18 03:28:54;;;;;;;24.27;8.25;;;;;;;;;;6208256;28;20065;-63
2022/09/18 03:31:54;;;;;;;21.63;6.63;;;;;;;;;;6211494;28;20501;-63
2022/09/18 03:34:55;;;;;;;21.38;7.55;;;;;;;;;;6216634;28;20145;-63
2022/09/18 03:37:56;;;;;;;29.65;7.53;;;;;;;;;;6213919;28;20053;-64
2022/09/18 03:40:56;;;;;;;18.98;7.28;;;;;;;;;;6218065;28;20482;-62
2022/09/18 03:43:57;;;;;;;22.17;7.70;;;;;;;;;;6214635;28;20144;-63
2022/09/18 03:46:57;;;;;;;20.60;7.53;;;;;;;;;;6210813;28;20042;-63
2022/09/18 03:49:58;;;;;;;24.70;7.82;;;;;;;;;;6212178;28;20762;-63
2022/09/18 03:52:59;;;;;;;26.63;9.23;;;;;;;;;;6211555;28;20232;-63
2022/09/18 03:56:00;;;;;;;19.33;6.80;;;;;;;;;;6210941;28;20141;-63
2022/09/18 03:59:01;;;;;;;18.55;6.30;;;;;;;;;;6211430;28;20382;-64
2022/09/18 04:02:01;;;;;;;16.48;6.47;;;;;;;;;;6210450;28;20050;-64
2022/09/18 04:05:02;;;;;;;17.50;6.38;;;;;;;;;;6209647;28;20042;-63
2022/09/18 04:08:04;;;;;;;17.55;6.45;;;;;;;;;;6210920;28;20133;-64
2022/09/18 04:11:05;;;;;;;24.30;7.53;;;;;;;;;;6210947;28;20524;-64
2022/09/18 04:14:05;;;;;;;16.42;6.72;;;;;;;;;;6210218;28;20046;-63
2022/09/18 04:17:06;;;;;;;22.95;6.10;;;;;;;;;;6209202;28;20045;-64
2022/09/18 04:20:07;;;;;;;17.67;6.18;;;;;;;;;;6209751;28;20136;-62
2022/09/18 04:23:10;;;;;;;16.83;5.57;;;;;;;;;;6210111;28;20112;-64
2022/09/18 04:26:10;;;;;;;22.42;8.18;;;;;;;;;;6209790;28;20053;-63
2022/09/18 04:29:11;;;;;;;19.27;6.95;;;;;;;;;;6210549;28;20082;-64
2022/09/18 04:32:12;;;;;;;18.50;6.72;;;;;;;;;;6209188;28;20044;-65
2022/09/18 04:35:12;;;;;;;22.98;6.50;;;;;;;;;;6209606;28;20053;-63
2022/09/18 04:38:13;;;;;;;20.05;6.63;;;;;;;;;;6210060;28;20552;-63
2022/09/18 04:41:14;;;;;;;19.25;7.07;;;;;;;;;;6210581;28;20060;-63
2022/09/18 04:44:14;;;;;;;23.85;7.60;;;;;;;;;;6211639;28;20072;-65
2022/09/18 04:47:15;;;;;;;18.05;7.47;;;;;;;;;;6211739;28;20057;-63
2022/09/18 04:50:16;;;;;;;20.95;6.85;;;;;;;;;;6211827;28;20049;-64
2022/09/18 04:53:17;;;;;;;20.73;7.30;;;;;;;;;;6216023;28;20046;-64
2022/09/18 04:56:17;;;;;;;26.70;7.85;;;;;;;;;;6209540;28;20045;-64
2022/09/18 04:59:18;;;;;;;25.13;9.75;;;;;;;;;;6209382;28;20069;-64
2022/09/18 05:02:19;;;;;;;28.33;10.27;;;;;;;;;;6210068;28;20096;-64
2022/09/18 05:05:20;;;;;;;27.33;9.77;;;;;;;;;;6209585;28;20716;-64
2022/09/18 05:08:21;;;;;;;31.48;10.75;;;;;;;;;;6208723;28;20045;-64
2022/09/18 05:11:22;;;;;;;30.08;10.05;;;;;;;;;;6211200;28;20115;-64
2022/09/18 05:14:22;;;;;;;30.67;9.32;;;;;;;;;;6209240;28;20062;-63
2022/09/18 05:17:23;;;;;;;25.83;9.57;;;;;;;;;;6209405;28;20464;-63
2022/09/18 05:20:23;;;;;;;29.88;10.35;;;;;;;;;;6212699;28;20056;-63
2022/09/18 05:23:24;;;;;;;29.90;10.23;;;;;;;;;;6210673;28;20044;-63
2022/09/18 05:26:25;;;;;;;26.90;10.60;;;;;;;;;;6208674;28;20042;-63
2022/09/18 05:29:26;;;;;;;26.83;9.07;;;;;;;;;;6209319;28;20492;-63
2022/09/18 05:32:26;;;;;;;26.98;10.15;;;;;;;;;;6211050;28;20303;-64
2022/09/18 05:35:29;;;;;;;30.85;9.45;;;;;;;;;;6208318;28;20054;-62
2022/09/18 05:38:30;;;;;;;22.90;9.18;;;;;;;;;;6211190;28;20073;-63
2022/09/18 05:41:30;;;;;;;25.88;9.77;;;;;;;;;;6214870;28;20069;-64
2022/09/18 05:44:31;;;;;;;22.33;9.02;;;;;;;;;;6215094;28;20060;-63
2022/09/18 05:47:35;;;;;;;26.35;10.02;;;;;;;;;;6212988;28;20539;-64
2022/09/18 05:50:36;;;;;;;22.08;9.63;;;;;;;;;;6212931;28;20670;-64
2022/09/18 05:53:36;;;;;;;23.52;10.05;;;;;;;;;;6214928;28;20050;-63
2022/09/18 05:56:37;;;;;;;22.33;9.20;;;;;;;;;;6211443;28;20481;-64
2022/09/18 05:59:38;;;;;;;24.23;9.60;;;;;;;;;;6213841;28;20133;-64
2022/09/18 06:02:38;;;;;;;27.60;9.52;;;;;;;;;;6214143;28;20100;-64
2022/09/18 06:05:39;;;;;;;22.35;9.52;;;;;;;;;;6211010;28;20054;-64
2022/09/18 06:08:39;;;;;;;30.92;10.73;;;;;;;;;;6214181;28;20037;-63
2022/09/18 06:11:40;;;;;;;26.17;9.68;;;;;;;;;;6214491;28;20038;-64
2022/09/18 06:14:41;;;;;;;23.80;9.80;;;;;;;;;;6213730;28;20416;-64
2022/09/18 06:17:42;;;;;;;27.42;10.98;;;;;;;;;;6214635;28;20149;-64
2022/09/18 06:20:43;;;;;;;23.20;9.90;;;;;;;;;;6215040;28;20057;-64
2022/09/18 06:23:44;;;;;;;24.85;9.30;;;;;;;;;;6213760;28;20156;-64
2022/09/18 06:26:47;;;;;;;21.60;9.93;;;;;;;;;;6209263;28;20096;-64
2022/09/18 06:29:49;;;;;;;22.95;9.00;;;;;;;;;;6212448;28;20501;-65
2022/09/18 06:32:49;;;;;;;22.67;9.05;;;;;;;;;;6215033;28;20128;-63
2022/09/18 06:35:50;;;;;;;19.85;9.70;;;;;;;;;;6214913;28;20050;-63
2022/09/18 06:38:51;;;;;;;22.70;9.57;;;;;;;;;;6211228;28;20398;-63
2022/09/18 06:41:52;;;;;;;19.52;8.48;;;;;;;;;;6213143;28;21263;-64
2022/09/18 06:44:53;;;;;;;23.52;9.70;;;;;;;;;;6213922;28;20112;-63
2022/09/18 06:47:54;;;;;;;24.90;10.95;;;;;;;;;;6213819;28;20133;-63
2022/09/18 06:50:56;;;;;;;21.10;10.80;;;;;;;;;;6215056;28;20038;-63
2022/09/18 06:53:57;;;;;;;75.85;38.50;;;;;;;;;;6212032;28;20664;-63
2022/09/18 06:56:58;;;;;;;40.13;18.23;;;;;;;;;;6211383;28;20054;-62
2022/09/18 06:59:58;;;;;;;24.25;11.18;;;;;;;;;;6213457;28;20415;-61
2022/09/18 07:03:01;;;;;;;28.42;13.45;;;;;;;;;;6209532;28;20042;-63
2022/09/18 07:06:02;;;;;;;27.00;12.70;;;;;;;;;;6211555;28;20069;-62
2022/09/18 07:09:02;;;;;;;25.90;10.73;;;;;;;;;;6211639;28;20087;-64
2022/09/18 07:12:03;;;;;;;25.02;10.82;;;;;;;;;;6213903;28;20038;-63
2022/09/18 07:15:04;;;;;;;29.52;11.85;;;;;;;;;;6214171;28;20101;-63
2022/09/18 07:18:06;;;;;;;26.50;10.68;;;;;;;;;;6213530;28;20037;-62
2022/09/18 07:21:07;;;;;;;21.95;10.32;;;;;;;;;;6217092;28;20054;-61
2022/09/18 07:24:07;;;;;;;19.88;9.18;;;;;;;;;;6218497;28;20101;-62
2022/09/18 07:27:08;;;;;;;23.58;9.48;;;;;;;;;;6217336;28;20096;-59
2022/09/18 07:30:09;;;;;;;22.23;9.85;;;;;;;;;;6218939;28;20164;-62
2022/09/18 07:33:10;;;;;;;47.30;22.05;;;;;;;;;;6218371;28;20504;-61
2022/09/18 07:36:10;;;;;;;24.27;10.55;;;;;;;;;;6217457;28;20042;-61
2022/09/18 07:39:11;;;;;;;38.05;17.77;;;;;;;;;;6218361;28;20045;-61
2022/09/18 07:42:12;;;;;;;23.13;10.38;;;;;;;;;;6218438;28;20073;-61
2022/09/18 07:45:13;;;;;;;19.45;10.98;;;;;;;;;;6217958;28;20046;-62
2022/09/18 07:48:14;;;;;;;22.45;9.65;;;;;;;;;;6216782;28;20100;-61
2022/09/18 07:51:15;;;;;;;18.90;9.02;;;;;;;;;;6218497;28;20177;-61
2022/09/18 07:54:15;;;;;;;18.27;8.60;;;;;;;;;;6208843;28;20080;-64
2022/09/18 07:57:16;;;;;;;17.80;8.57;;;;;;;;;;6213777;28;20497;-61
2022/09/18 08:00:17;;;;;;;18.33;8.02;;;;;;;;;;6211643;28;20048;-62
2022/09/18 08:03:17;;;;;;;20.40;8.35;;;;;;;;;;6214018;28;20064;-59
2022/09/18 08:06:19;;;;;;;17.33;8.07;;;;;;;;;;6214772;28;20046;-63
2022/09/18 08:09:20;;;;;;;22.03;9.10;;;;;;;;;;6214441;28;20057;-70
2022/09/18 08:12:21;;;;;;;19.52;8.23;;;;;;;;;;6214379;28;20644;-62
2022/09/18 08:15:21;;;;;;;14.70;7.68;;;;;;;;;;6216363;28;20037;-63
2022/09/18 08:18:22;;;;;;;16.23;6.95;;;;;;;;;;6216346;28;20038;-55
2022/09/18 08:21:23;;;;;;;16.33;6.75;;;;;;;;;;6216814;28;20046;-55
2022/09/18 08:24:24;;;;;;;17.92;8.73;;;;;;;;;;6216711;28;20053;-64
2022/09/18 08:27:25;;;;;;;15.48;7.30;;;;;;;;;;6213522;28;20169;-62
2022/09/18 08:30:29;;;;;;;23.17;7.85;;;;;;;;;;6206716;28;20049;-67
2022/09/18 08:33:30;;;;;;;13.93;7.22;;;;;;;;;;6207994;28;20046;-63
2022/09/18 08:36:30;;;;;;;15.38;7.20;;;;;;;;;;6215039;28;20104;-61
2022/09/18 08:39:33;;;;;;;15.02;7.13;;;;;;;;;;6215616;28;20141;-62
2022/09/18 08:42:44;;;;;;;14.50;7.30;;;;;;;;;;6215432;28;21743;-65
2022/09/18 08:46:06;;;;;;;12.50;6.80;;;;;;;;;;6213568;28;20054;-61
2022/09/18 08:49:20;;;;;;;14.48;6.55;;;;;;;;;;6214204;28;20413;-61
2022/09/18 08:52:24;;;;;;;;;;;;;;;;;;6216165;28;20041;-61
2022/09/18 08:55:37;;;;;;;16.70;5.85;;;;;;;;;;6215081;28;19925;-61
2022/09/18 08:58:53;;;;;;;11.40;5.43;;;;;;;;;;6212556;28;20041;-61
2022/09/18 09:02:13;;;;;;;11.15;4.57;;;;;;;;;;6214955;28;20056;-61
2022/09/18 09:05:17;;;;;;;11.52;4.88;;;;;;;;;;6216979;28;20042;-63
2022/09/18 09:08:47;;;;;;;10.75;4.35;;;;;;;;;;6216511;28;20049;-61
2022/09/18 09:12:40;;;;;;;10.65;4.00;;;;;;;;;;6215732;28;20386;-61
2022/09/18 09:16:13;;;;;;;11.68;4.47;;;;;;;;;;6116247;29;20116;-62
2022/09/18 09:19:55;;;;;;;9.05;3.78;;;;;;;;;;6120999;28;20054;-61
2022/09/18 09:23:16;;;;;;;10.02;4.18;;;;;;;;;;6140557;29;20051;-61
2022/09/18 09:26:21;;;;;;;7.05;3.10;;;;;;;;;;6145359;28;20569;-61
2022/09/18 09:29:33;;;;;;;6.97;3.15;;;;;;;;;;6216111;28;20049;-61
2022/09/18 09:32:41;;;;;;;7.90;3.28;;;;;;;;;;6214117;28;20042;-61
2022/09/18 09:35:49;;;;;;;6.32;2.80;;;;;;;;;;6213723;28;20424;-61
2022/09/18 09:39:03;;;;;;;5.90;2.90;;;;;;;;;;6213358;28;20835;-62
2022/09/18 09:42:17;;;;;;;5.75;2.85;;;;;;;;;;6212643;28;20076;-60
2022/09/18 09:45:49;;;;;;;6.45;2.92;;;;;;;;;;6212269;28;20458;-61
2022/09/18 09:49:19;;;;;;;7.78;2.70;;;;;;;;;;6209301;28;20428;-60
2022/09/18 09:52:23;;;;;;;5.63;2.70;;;;;;;;;;6209773;28;20038;-62
2022/09/18 09:55:31;;;;;;;7.35;2.90;;;;;;;;;;6212035;28;20125;-66
2022/09/18 09:58:53;;;;;;;6.85;2.90;;;;;;;;;;6212760;28;20054;-60
2022/09/18 10:02:14;;;;;;;;;;;;;;;;;;6215798;28;20510;-62
2022/09/18 10:05:28;;;;;;;8.50;3.00;;;;;;;;;;6215627;28;19939;-60
2022/09/18 10:08:43;;;;;;;5.53;2.50;;;;;;;;;;6213775;28;20107;-61
2022/09/18 10:11:52;;;;;;;6.32;2.55;;;;;;;;;;6213774;28;20046;-61
2022/09/18 10:14:55;;;;;;;7.25;2.50;;;;;;;;;;6215005;28;20076;-61
2022/09/18 10:18:00;;;;;;;7.13;2.85;;;;;;;;;;6213921;28;20145;-62
2022/09/18 10:21:06;;;;;;;7.68;3.28;;;;;;;;;;6205760;28;20184;-62
2022/09/18 10:24:37;;;;;;;10.95;3.30;;;;;;;;;;6192935;28;20042;-63
2022/09/18 10:27:38;;;;;;;6.45;2.60;;;;;;;;;;6196327;28;20090;-62
2022/09/18 10:30:53;;;;;;;7.60;2.88;;;;;;;;;;6197836;28;20083;-61
2022/09/18 10:33:55;;;;;;;8.23;3.13;;;;;;;;;;6200957;28;20038;-68
2022/09/18 10:36:55;;;;;;;29.30;5.57;;;;;;;;;;6204564;28;20030;-61
2022/09/18 10:40:00;;;;;;;10.07;4.32;;;;;;;;;;6205388;28;20485;-64
2022/09/18 10:43:01;;;;;;;10.93;4.45;;;;;;;;;;6200746;28;20052;-62
2022/09/18 10:46:02;;;;;;;12.30;4.65;;;;;;;;;;6200250;28;20058;-62
2022/09/18 10:49:17;;;;;;;12.25;4.80;;;;;;;;;;6202939;28;20097;-62
2022/09/18 10:52:24;;;;;;;14.88;5.00;;;;;;;;;;6199321;28;20054;-62
2022/09/18 10:55:26;;;;;;;13.48;5.18;;;;;;;;;;6197838;28;20490;-62
2022/09/18 10:58:31;;;;;;;11.18;5.25;;;;;;;;;;6201332;28;20105;-62
2022/09/18 11:01:32;;;;;;;11.25;5.15;;;;;;;;;;6200681;28;20057;-62
2022/09/18 11:04:33;;;;;;;12.07;4.70;;;;;;;;;;6201812;28;20058;-61
2022/09/18 11:07:34;;;;;;;11.05;5.00;;;;;;;;;;6196958;28;20410;-62
2022/09/18 11:10:36;;;;;;;11.68;4.82;;;;;;;;;;6200940;28;20078;-62
2022/09/18 11:13:49;;;;;;;9.90;4.97;;;;;;;;;;6200748;28;20134;-57
2022/09/18 11:16:55;;;;;;;9.32;4.35;;;;;;;;;;6197952;28;20057;-59
2022/09/18 11:19:58;;;;;;;9.32;4.25;;;;;;;;;;6199036;28;20046;-62
2022/09/18 11:23:17;;;;;;;9.13;4.03;;;;;;;;;;6200542;28;20104;-61
2022/09/18 11:26:25;;;;;;;9.40;4.35;;;;;;;;;;6199910;28;20042;-61
2022/09/18 11:29:29;;;;;;;8.75;3.90;;;;;;;;;;6191345;28;20136;-61
2022/09/18 11:32:30;;;;;;;9.02;4.40;;;;;;;;;;6198298;28;20050;-62
2022/09/18 11:35:31;;;;;;;10.85;4.00;;;;;;;;;;6202251;28;20147;-61
2022/09/18 11:38:38;;;;;;;7.90;3.80;;;;;;;;;;6199462;28;20152;-60
2022/09/18 11:41:39;;;;;;;8.65;3.65;;;;;;;;;;6197235;28;20553;-61
2022/09/18 11:44:41;;;;;;;8.00;3.35;;;;;;;;;;6197886;28;20069;-59
2022/09/18 11:47:47;;;;;;;10.50;3.83;;;;;;;;;;6201870;28;20124;-60
2022/09/18 11:50:51;;;;;;;5.70;2.75;;;;;;;;;;6191690;28;20625;-60
2022/09/18 11:54:01;;;;;;;7.68;3.13;;;;;;;;;;6198311;28;20065;-62
2022/09/18 11:57:05;;;;;;;6.65;2.40;;;;;;;;;;6194748;28;20061;-62
2022/09/18 12:00:14;;;;;;;6.10;2.50;;;;;;;;;;6196513;28;20584;-61
2022/09/18 12:03:24;;;;;;;4.38;2.20;;;;;;;;;;6193366;28;20113;-60
2022/09/18 12:06:42;;;;;;;5.75;2.60;;;;;;;;;;6200620;28;20074;-60
2022/09/18 12:09:59;;;;;;;7.30;3.97;;;;;;;;;;6199112;28;20073;-60
2022/09/18 12:13:12;;;;;;;6.90;2.13;;;;;;;;;;6192692;28;20052;-61
2022/09/18 12:16:26;;;;;;;4.57;2.20;;;;;;;;;;6195508;28;20520;-60
2022/09/18 12:19:34;;;;;;;6.93;1.95;;;;;;;;;;6193765;28;20093;-61
2022/09/18 12:22:53;;;;;;;6.50;1.98;;;;;;;;;;6193606;28;20046;-61
2022/09/18 12:26:35;;;;;;;6.75;2.63;;;;;;;;;;6200204;28;20140;-65
2022/09/18 12:29:45;;;;;;;5.83;2.17;;;;;;;;;;6199189;28;20230;-61
2022/09/18 12:33:20;;;;;;;4.95;2.20;;;;;;;;;;6198161;28;20373;-61
2022/09/18 12:36:45;;;;;;;5.95;2.55;;;;;;;;;;6202513;28;20070;-62
2022/09/18 12:40:01;;;;;;;4.80;2.30;;;;;;;;;;6202502;28;20057;-63
2022/09/18 12:43:14;;;;;;;5.93;2.20;;;;;;;;;;6195900;28;20527;-63
2022/09/18 12:46:23;;;;;;;6.88;3.13;;;;;;;;;;6201957;28;20152;-64
2022/09/18 12:50:00;;;;;;;8.45;4.15;;;;;;;;;;6201582;28;20038;-60
2022/09/18 12:53:25;;;;;;;8.35;3.78;;;;;;;;;;6199544;28;20053;-64
2022/09/18 12:56:58;;;;;;;8.98;4.20;;;;;;;;;;6199491;28;20073;-64
2022/09/18 13:00:12;;;;;;;8.20;4.03;;;;;;;;;;6201114;28;20495;-62
2022/09/18 13:03:19;;;;;;;9.07;4.15;;;;;;;;;;6200562;28;20566;-64
2022/09/18 13:06:42;;;;;;;9.90;4.60;;;;;;;;;;6197831;28;21166;-56
2022/09/18 13:09:51;;;;;;;7.43;4.05;;;;;;;;;;6197482;28;20049;-53
2022/09/18 13:13:09;;;;;;;8.13;3.35;;;;;;;;;;6198125;28;20141;-63
2022/09/18 13:16:14;;;;;;;9.40;3.60;;;;;;;;;;6201463;28;20492;-63
2022/09/18 13:19:24;;;;;;;7.07;3.28;;;;;;;;;;6201253;28;20045;-64
2022/09/18 13:22:32;;;;;;;9.85;3.38;;;;;;;;;;6191044;28;20046;-64
2022/09/18 13:25:36;;;;;;;7.22;2.80;;;;;;;;;;6192841;28;20893;-64
2022/09/18 13:28:40;;;;;;;8.07;2.90;;;;;;;;;;6194126;28;20080;-61
2022/09/18 13:31:41;;;;;;;9.98;3.22;;;;;;;;;;6195222;28;20125;-62
2022/09/18 13:34:54;;;;;;;9.73;4.75;;;;;;;;;;6192169;28;20061;-62
2022/09/18 13:38:12;;;;;;;9.68;3.75;;;;;;;;;;6201466;28;20512;-63
2022/09/18 13:41:12;;;;;;;10.38;3.80;;;;;;;;;;6194224;28;20089;-62
2022/09/18 13:44:22;;;;;;;10.88;4.15;;;;;;;;;;6195241;28;20722;-63
2022/09/18 13:47:23;;;;;;;15.43;4.13;;;;;;;;;;6195280;28;20046;-61
2022/09/18 13:50:24;;;;;;;12.50;4.23;;;;;;;;;;6193328;28;20141;-61
2022/09/18 13:53:43;;;;;;;16.20;4.93;;;;;;;;;;6198321;28;20057;-68
2022/09/18 13:57:02;;;;;;;16.77;4.55;;;;;;;;;;6194787;28;20057;-62
2022/09/18 14:00:19;;;;;;;19.48;5.63;;;;;;;;;;6203382;28;20053;-61
2022/09/18 14:03:19;;;;;;;17.50;5.40;;;;;;;;;;6197179;28;20141;-62
2022/09/18 14:06:35;;;;;;;18.30;6.65;;;;;;;;;;6200336;28;20061;-62
2022/09/18 14:09:52;;;;;;;22.15;5.80;;;;;;;;;;6197417;28;20481;-61
2022/09/18 14:13:05;;;;;;;19.67;6.22;;;;;;;;;;6198933;28;20529;-62
2022/09/18 14:16:22;;;;;;;18.40;5.70;;;;;;;;;;6200077;28;20056;-62
2022/09/18 14:19:30;;;;;;;21.23;5.95;;;;;;;;;;6202779;28;20046;-62
2022/09/18 14:22:33;;;;;;;19.58;6.10;;;;;;;;;;6196660;28;20046;-62
2022/09/18 14:25:51;;;;;;;;;;;;;;;;;;6197480;28;20428;-61
2022/09/18 14:28:52;;;;;;;14.98;5.85;;;;;;;;;;6200492;28;20045;-62
2022/09/18 14:31:55;;;;;;;18.80;5.63;;;;;;;;;;6197096;28;20481;-62
2022/09/18 14:35:20;;;;;;;17.58;5.90;;;;;;;;;;6200064;28;20045;-62
2022/09/18 14:38:31;;;;;;;24.23;6.57;;;;;;;;;;6198036;28;20544;-62
2022/09/18 14:41:34;;;;;;;23.20;6.38;;;;;;;;;;6194030;28;20459;-62
2022/09/18 14:44:36;;;;;;;15.15;5.85;;;;;;;;;;6197277;28;20054;-63
2022/09/18 14:47:38;;;;;;;23.52;6.30;;;;;;;;;;6199688;28;20116;-62
2022/09/18 14:50:38;;;;;;;;;;;;;;;;;;6198287;28;20131;-62
2022/09/18 14:53:44;;;;;;;26.27;6.95;;;;;;;;;;6197182;28;19944;-63
2022/09/18 14:56:47;;;;;;;27.08;7.38;;;;;;;;;;6194403;28;20055;-62
2022/09/18 14:59:51;;;;;;;32.03;7.47;;;;;;;;;;6201792;28;20593;-62
2022/09/18 15:02:55;;;;;;;21.63;6.63;;;;;;;;;;6199096;28;20660;-62
2022/09/18 15:06:24;;;;;;;18.42;6.55;;;;;;;;;;6195303;28;20112;-62
2022/09/18 15:09:31;;;;;;;25.35;7.20;;;;;;;;;;6195086;28;20058;-62
2022/09/18 15:12:34;;;;;;;25.58;8.15;;;;;;;;;;6197790;28;20404;-62
2022/09/18 15:15:38;;;;;;;27.75;8.00;;;;;;;;;;6197048;28;20085;-62
2022/09/18 15:18:41;;;;;;;24.48;7.03;;;;;;;;;;6200572;28;20450;-62
2022/09/18 15:21:45;;;;;;;;;;;;;;;;;;6199089;28;20050;-62
2022/09/18 15:24:46;;;;;;;22.05;6.95;;;;;;;;;;6195141;28;20051;-62
2022/09/18 15:27:47;;;;;;;24.00;7.07;;;;;;;;;;6197223;28;21147;-62
2022/09/18 15:30:51;;;;;;;27.10;7.28;;;;;;;;;;6198308;28;20038;-61
2022/09/18 15:33:59;;;;;;;18.33;6.82;;;;;;;;;;6200734;28;20054;-62
2022/09/18 15:37:03;;;;;;;27.00;7.13;;;;;;;;;;6198604;28;20046;-62
2022/09/18 15:40:06;;;;;;;26.17;7.22;;;;;;;;;;6197368;28;20053;-62
2022/09/18 15:43:28;;;;;;;19.20;6.68;;;;;;;;;;6192066;28;20509;-61
2022/09/18 15:46:35;;;;;;;24.55;8.10;;;;;;;;;;6196640;28;20054;-62
2022/09/18 15:49:35;;;;;;;20.65;7.03;;;;;;;;;;6203081;28;20151;-62
2022/09/18 15:53:02;;;;;;;21.60;6.90;;;;;;;;;;6196915;28;20053;-62
2022/09/18 15:56:07;;;;;;;22.20;7.03;;;;;;;;;;6197606;28;20930;-62
2022/09/18 15:59:26;;;;;;;19.95;7.32;;;;;;;;;;6197583;28;20068;-63
2022/09/18 16:02:36;;;;;;;22.33;7.75;;;;;;;;;;6191973;28;20404;-62
2022/09/18 16:05:38;;;;;;;17.23;7.10;;;;;;;;;;6201580;28;20060;-62
2022/09/18 16:08:39;;;;;;;23.88;7.22;;;;;;;;;;6201449;28;21415;-61
2022/09/18 16:11:46;;;;;;;18.65;7.07;;;;;;;;;;6197813;28;20050;-62
2022/09/18 16:15:14;;;;;;;24.92;8.30;;;;;;;;;;6191459;28;20164;-62
2022/09/18 16:18:15;;;;;;;25.50;8.00;;;;;;;;;;6193626;28;20176;-62
2022/09/18 16:21:15;;;;;;;26.35;7.75;;;;;;;;;;6193756;28;20464;-62
2022/09/18 16:24:29;;;;;;;24.00;8.65;;;;;;;;;;6195513;28;20664;-63
2022/09/18 16:27:29;;;;;;;27.23;9.10;;;;;;;;;;6192888;28;20052;-62
2022/09/18 16:30:32;;;;;;;25.00;8.70;;;;;;;;;;6194708;28;20141;-64
2022/09/18 16:33:34;;;;;;;78.88;31.67;;;;;;;;;;6192116;28;20094;-62
2022/09/18 16:36:37;;;;;;;27.05;8.20;;;;;;;;;;6192090;28;20512;-62
2022/09/18 16:39:38;;;;;;;27.70;8.20;;;;;;;;;;6193376;28;20137;-62
2022/09/18 16:42:39;;;;;;;23.45;8.73;;;;;;;;;;6193802;28;20069;-62
2022/09/18 16:45:40;;;;;;;35.80;13.00;;;;;;;;;;6193205;28;20085;-62
2022/09/18 16:48:40;;;;;;;154.60;65.20;;;;;;;;;;6194809;28;21571;-63
2022/09/18 16:51:41;;;;;;;101.70;45.80;;;;;;;;;;6190245;28;20085;-62
2022/09/18 16:54:42;;;;;;;95.32;45.75;;;;;;;;;;6195706;28;20053;-62
2022/09/18 16:57:43;;;;;;;65.55;29.40;;;;;;;;;;6197861;28;20141;-61
2022/09/18 17:00:44;;;;;;;81.55;38.15;;;;;;;;;;6192197;28;20042;-61
2022/09/18 17:03:44;;;;;;;83.90;41.00;;;;;;;;;;6196169;28;20054;-61
2022/09/18 17:06:45;;;;;;;77.50;32.53;;;;;;;;;;6195884;28;20057;-61
2022/09/18 17:09:45;;;;;;;45.42;18.80;;;;;;;;;;6194595;28;20161;-62
2022/09/18 17:12:46;;;;;;;41.63;17.10;;;;;;;;;;6191271;28;20465;-61
2022/09/18 17:15:47;;;;;;;69.57;25.75;;;;;;;;;;6192690;28;20744;-62
2022/09/18 17:18:48;;;;;;;114.32;39.08;;;;;;;;;;6194192;28;20046;-61
2022/09/18 17:21:49;;;;;;;131.10;50.08;;;;;;;;;;6193156;28;20054;-61
2022/09/18 17:24:50;;;;;;;126.88;52.25;;;;;;;;;;6192028;28;20107;-61
2022/09/18 17:27:51;;;;;;;83.47;36.92;;;;;;;;;;6194266;28;20564;-62
2022/09/18 17:30:53;;;;;;;95.50;41.78;;;;;;;;;;6191330;28;20089;-61
2022/09/18 17:33:54;;;;;;;84.43;35.75;;;;;;;;;;6198282;28;20050;-62
2022/09/18 17:36:55;;;;;;;69.23;26.30;;;;;;;;;;6196628;28;20081;-61
2022/09/18 17:39:56;;;;;;;76.65;35.05;;;;;;;;;;6200097;28;20152;-62
2022/09/18 17:42:56;;;;;;;56.55;25.30;;;;;;;;;;6198298;28;20046;-62
2022/09/18 17:45:59;;;;;;;68.78;31.05;;;;;;;;;;6196903;28;20046;-61
2022/09/18 17:49:00;;;;;;;76.30;33.47;;;;;;;;;;6200362;28;20165;-62
2022/09/18 17:52:01;;;;;;;66.23;28.00;;;;;;;;;;6200121;28;20058;-62
2022/09/18 17:55:02;;;;;;;19.90;6.30;;;;;;;;;;6199878;28;21685;-62
2022/09/18 17:58:03;;;;;;;19.60;6.57;;;;;;;;;;6196245;28;20056;-62
2022/09/18 18:01:11;;;;;;;17.55;6.60;;;;;;;;;;6196475;28;20137;-62
2022/09/18 18:04:12;;;;;;;15.70;6.45;;;;;;;;;;6199454;28;20792;-61
2022/09/18 18:07:13;;;;;;;22.90;8.30;;;;;;;;;;6199783;28;20845;-62
2022/09/18 18:10:14;;;;;;;24.25;7.82;;;;;;;;;;6198813;28;20054;-62
2022/09/18 18:13:16;;;;;;;23.17;7.53;;;;;;;;;;6196113;28;20628;-62
2022/09/18 18:16:22;;;;;;;26.20;9.55;;;;;;;;;;6200777;28;20085;-61
2022/09/18 18:19:23;;;;;;;22.73;9.00;;;;;;;;;;6198973;28;20050;-62
2022/09/18 18:22:25;;;;;;;19.90;8.02;;;;;;;;;;6193515;28;20046;-61